This is the latest recevied weather packets stored in our database for station/object 9M2IBR-1. If no packets are shown the sender has not sent any weather packets the latest 10 day(s).
| Time | Temp. | Humidity | Pressure | Rain* | Wind** | Luminosity | Snow |
|---|---|---|---|---|---|---|---|
| 1777334129 | 24.44° C | 98% | 1007.4 hPa | 0 mm | - | 62 W/m² | - |
| 1777329046 | 23.89° C | 98% | 1006.6 hPa | 0 mm | - | 0 W/m² | - |
| 1777327230 | 23.89° C | 98% | 1006.3 hPa | 0 mm | - | 0 W/m² | - |
| 1777315853 | 24.44° C | 96% | 1006.8 hPa | 0 mm | - | 0 W/m² | - |
| 1777314640 | 25° C | 95% | 1007.1 hPa | 0 mm | - | 0 W/m² | - |
| 1777313427 | 25° C | 95% | 1007.5 hPa | 0 mm | - | 0 W/m² | - |
| 1777312823 | 24.44° C | 96% | 1007.6 hPa | 0 mm | - | 0 W/m² | - |
| 1777307417 | 25° C | 95% | 1009 hPa | 0 mm | - | 0 W/m² | - |
| 1777306546 | 25° C | 95% | 1009 hPa | 0 mm | - | 0 W/m² | - |
| 1777304729 | 25.56° C | 94% | 1009.1 hPa | 0 mm | - | 0 W/m² | - |
| 1777304427 | 25.56° C | 94% | 1008.8 hPa | 0 mm | - | 0 W/m² | - |
| 1777304125 | 25.56° C | 94% | 1008.8 hPa | 0 mm | - | 0 W/m² | - |
| 1777302031 | 25.56° C | 92% | 1008.8 hPa | 0 mm | - | 0 W/m² | - |
| 1777301447 | 25.56° C | 92% | 1008.8 hPa | 0 mm | - | 0 W/m² | - |
| 1777300838 | 26.11° C | 92% | 1008.8 hPa | 0 mm | - | 0 W/m² | - |
| 1777300531 | 26.11° C | 91% | 1008.7 hPa | 0 mm | - | 0 W/m² | - |
| 1777300228 | 26.11° C | 91% | 1008.8 hPa | 0 mm | - | 0 W/m² | - |
| 1777294218 | 27.78° C | 82% | 1008 hPa | 0 mm | - | 0 W/m² | - |
| 1777292117 | 27.78° C | 86% | 1007.4 hPa | 0 mm | - | 0 W/m² | - |
| 1777290924 | 27.78° C | 85% | 1006.9 hPa | 0 mm | - | 0 W/m² | - |
| 1777290320 | 27.78° C | 84% | 1007.4 hPa | 0 mm | - | 0 W/m² | - |
| 1777287028 | 31.67° C | 79% | 1006 hPa | 0 mm | - | 75 W/m² | - |
| 1777285518 | 31.67° C | 79% | 1005.8 hPa | 0 mm | - | 104 W/m² | - |
| 1777284928 | 32.22° C | 78% | 1005.8 hPa | 0 mm | - | 129 W/m² | - |
| 1777284324 | 32.22° C | 76% | 1005.3 hPa | 0 mm | - | 149 W/m² | - |
* Rain latest hour (hover to see other rain measurements)
** Current wind speed in m/s (hover to see current wind gust speed)